createdAt,value
2018-04-13T00:00:33.080Z,996.43
2018-04-13T00:01:08.395Z,996.41
2018-04-13T00:01:43.761Z,996.42
2018-04-13T00:02:19.009Z,996.44
2018-04-13T00:02:54.423Z,996.46
2018-04-13T00:03:29.702Z,996.45
2018-04-13T00:04:05.034Z,996.46
2018-04-13T00:04:42.799Z,996.44
2018-04-13T00:05:18.028Z,996.39
2018-04-13T00:05:53.427Z,996.44
2018-04-13T00:06:28.645Z,996.44
2018-04-13T00:07:03.997Z,996.46
2018-04-13T00:07:39.183Z,996.47
2018-04-13T00:08:14.591Z,996.44
2018-04-13T00:08:52.005Z,996.45
2018-04-13T00:09:27.321Z,996.45
2018-04-13T00:10:02.400Z,996.45
2018-04-13T00:10:37.721Z,996.46
2018-04-13T00:11:13.122Z,996.45
2018-04-13T00:11:48.555Z,996.45
2018-04-13T00:12:24.003Z,996.45
2018-04-13T00:12:59.469Z,996.43
2018-04-13T00:13:34.687Z,996.44
2018-04-13T00:14:10.200Z,996.50
2018-04-13T00:14:45.605Z,996.48
2018-04-13T00:15:20.818Z,996.49
2018-04-13T00:15:56.418Z,996.47
2018-04-13T00:16:31.850Z,996.50
2018-04-13T00:17:07.279Z,996.54
2018-04-13T00:17:42.480Z,996.54
2018-04-13T00:18:17.993Z,996.57
2018-04-13T00:18:53.192Z,996.56
2018-04-13T00:19:28.706Z,996.53
2018-04-13T00:20:03.961Z,996.57
2018-04-13T00:20:40.963Z,996.54
2018-04-13T00:21:16.397Z,996.57
2018-04-13T00:21:51.829Z,996.58
2018-04-13T00:22:27.384Z,996.63
2018-04-13T00:23:02.794Z,996.62
2018-04-13T00:23:37.927Z,996.63
2018-04-13T00:24:13.450Z,996.63
2018-04-13T00:24:50.044Z,996.67
2018-04-13T00:25:25.183Z,996.67
2018-04-13T00:26:00.371Z,996.62
2018-04-13T00:26:35.573Z,996.64
2018-04-13T00:27:10.905Z,996.62
2018-04-13T00:27:46.218Z,996.62
2018-04-13T00:28:21.434Z,996.59
2018-04-13T00:28:56.626Z,996.59
2018-04-13T00:29:32.160Z,996.56
2018-04-13T00:30:07.774Z,996.55
2018-04-13T00:30:44.373Z,996.56
2018-04-13T00:31:19.612Z,996.52
2018-04-13T00:31:55.039Z,996.54
2018-04-13T00:32:30.599Z,996.48
2018-04-13T00:33:05.973Z,996.48
2018-04-13T00:33:41.344Z,996.48
2018-04-13T00:34:17.055Z,996.47
2018-04-13T00:34:52.779Z,996.47
2018-04-13T00:35:28.232Z,996.48
2018-04-13T00:36:03.418Z,996.48
2018-04-13T00:36:38.859Z,996.48
2018-04-13T00:37:14.206Z,996.48
2018-04-13T00:37:50.939Z,996.48
2018-04-13T00:38:26.292Z,996.48
2018-04-13T00:39:01.576Z,996.45
2018-04-13T00:39:36.996Z,996.48
2018-04-13T00:40:12.229Z,996.48
2018-04-13T00:40:47.909Z,996.45
2018-04-13T00:41:23.575Z,996.44
2018-04-13T00:41:58.995Z,996.47
2018-04-13T00:42:34.660Z,996.46
2018-04-13T00:43:09.782Z,996.47
2018-04-13T00:43:45.361Z,996.49
2018-04-13T00:44:20.577Z,996.49
2018-04-13T00:44:55.864Z,996.50
2018-04-13T00:45:31.092Z,996.50
2018-04-13T00:46:06.638Z,996.47
2018-04-13T00:46:41.930Z,996.48
2018-04-13T00:47:17.416Z,996.51
2018-04-13T00:47:52.836Z,996.47
2018-04-13T00:48:28.083Z,996.45
2018-04-13T00:49:03.307Z,996.46
2018-04-13T00:49:38.823Z,996.43
2018-04-13T00:50:14.464Z,996.45
2018-04-13T00:50:49.861Z,996.47
2018-04-13T00:51:25.285Z,996.47
2018-04-13T00:52:00.726Z,996.51
2018-04-13T00:52:36.157Z,996.50
2018-04-13T00:53:11.229Z,996.53
2018-04-13T00:53:46.440Z,996.54
2018-04-13T00:54:21.936Z,996.53
2018-04-13T00:54:57.570Z,996.54
2018-04-13T00:55:32.819Z,996.57
2018-04-13T00:56:08.106Z,996.54
2018-04-13T00:56:43.644Z,996.56
2018-04-13T00:57:19.145Z,996.55
2018-04-13T00:57:54.588Z,996.54
2018-04-13T00:58:30.100Z,996.57
2018-04-13T00:59:05.710Z,996.59
2018-04-13T00:59:40.936Z,996.59
2018-04-13T01:00:16.138Z,996.57
2018-04-13T01:00:51.954Z,996.57
2018-04-13T01:01:27.376Z,996.55
2018-04-13T01:02:02.785Z,996.58
2018-04-13T01:02:38.647Z,996.61
2018-04-13T01:03:14.147Z,996.58
2018-04-13T01:03:49.601Z,996.58
2018-04-13T01:04:25.022Z,996.62
2018-04-13T01:05:00.202Z,996.58
2018-04-13T01:05:35.541Z,996.60
2018-04-13T01:06:10.649Z,996.56
2018-04-13T01:06:46.106Z,996.56
2018-04-13T01:07:21.625Z,996.61
2018-04-13T01:07:56.942Z,996.60
2018-04-13T01:08:32.148Z,996.56
2018-04-13T01:09:07.427Z,996.59
2018-04-13T01:09:42.659Z,996.56
2018-04-13T01:10:18.144Z,996.56
2018-04-13T01:10:53.462Z,996.54
2018-04-13T01:11:28.898Z,996.53
2018-04-13T01:12:04.528Z,996.52
2018-04-13T01:12:41.249Z,996.55
2018-04-13T01:13:16.621Z,996.54
2018-04-13T01:13:52.055Z,996.52
2018-04-13T01:14:27.665Z,996.56
2018-04-13T01:15:03.071Z,996.53
2018-04-13T01:15:38.485Z,996.54
2018-04-13T01:16:13.818Z,996.55
2018-04-13T01:16:49.380Z,996.52
2018-04-13T01:17:24.821Z,996.53
2018-04-13T01:18:00.097Z,996.55
2018-04-13T01:18:35.635Z,996.55
2018-04-13T01:19:10.752Z,996.51
2018-04-13T01:19:46.374Z,996.57
2018-04-13T01:20:21.765Z,996.58
2018-04-13T01:20:57.282Z,996.57
2018-04-13T01:21:32.492Z,996.58
2018-04-13T01:22:08.001Z,996.57
2018-04-13T01:22:43.436Z,996.61
2018-04-13T01:23:18.933Z,996.63
2018-04-13T01:23:54.344Z,996.58
2018-04-13T01:24:30.243Z,996.55
2018-04-13T01:25:05.968Z,996.54
2018-04-13T01:25:41.195Z,996.54
2018-04-13T01:26:16.605Z,996.50
2018-04-13T01:26:51.935Z,996.52
2018-04-13T01:27:27.305Z,996.51
2018-04-13T01:28:02.386Z,996.52
2018-04-13T01:28:37.720Z,996.49
2018-04-13T01:29:13.206Z,996.50
2018-04-13T01:29:48.620Z,996.51
2018-04-13T01:30:24.053Z,996.51
2018-04-13T01:30:59.757Z,996.51
2018-04-13T01:31:35.097Z,996.49
2018-04-13T01:32:10.712Z,996.48
2018-04-13T01:32:46.220Z,996.49
2018-04-13T01:33:21.544Z,996.52
2018-04-13T01:33:57.188Z,996.53
2018-04-13T01:34:32.696Z,996.55
2018-04-13T01:35:08.110Z,996.58
2018-04-13T01:35:43.251Z,996.58
2018-04-13T01:36:18.562Z,996.57
2018-04-13T01:36:53.874Z,996.57
2018-04-13T01:37:29.137Z,996.58
2018-04-13T01:38:04.444Z,996.57
2018-04-13T01:38:39.902Z,996.60
2018-04-13T01:39:15.502Z,996.59
2018-04-13T01:39:50.611Z,996.60
2018-04-13T01:40:25.941Z,996.60
2018-04-13T01:41:01.131Z,996.58
2018-04-13T01:41:36.356Z,996.60
2018-04-13T01:42:11.665Z,996.62
2018-04-13T01:42:46.918Z,996.62
2018-04-13T01:43:22.321Z,996.63
2018-04-13T01:43:57.575Z,996.64
2018-04-13T01:44:32.989Z,996.65
2018-04-13T01:45:08.118Z,996.67
2018-04-13T01:45:43.435Z,996.61
2018-04-13T01:46:18.452Z,996.62
2018-04-13T01:46:53.920Z,996.65
2018-04-13T01:47:29.198Z,996.66
2018-04-13T01:48:04.547Z,996.65
2018-04-13T01:48:40.260Z,996.66
2018-04-13T01:49:15.544Z,996.68
2018-04-13T01:49:51.173Z,996.68
2018-04-13T01:50:26.367Z,996.69
2018-04-13T01:51:01.884Z,996.64
2018-04-13T01:51:36.992Z,996.68
2018-04-13T01:52:12.842Z,996.64
2018-04-13T01:52:48.154Z,996.65
2018-04-13T01:53:23.457Z,996.64
2018-04-13T01:53:58.876Z,996.66
2018-04-13T01:54:34.088Z,996.71
2018-04-13T01:55:09.988Z,996.68
2018-04-13T01:55:45.409Z,996.69
2018-04-13T01:56:21.048Z,996.71
2018-04-13T01:56:56.370Z,996.74
2018-04-13T01:57:31.683Z,996.69
2018-04-13T01:58:07.624Z,996.73
2018-04-13T01:58:43.153Z,996.73
2018-04-13T01:59:18.638Z,996.71
2018-04-13T01:59:54.058Z,996.71
2018-04-13T02:00:29.650Z,996.71
2018-04-13T02:01:04.983Z,996.74
2018-04-13T02:01:41.092Z,996.73
2018-04-13T02:02:16.715Z,996.71
2018-04-13T02:02:52.130Z,996.77
2018-04-13T02:03:27.311Z,996.72
2018-04-13T02:04:02.747Z,996.74
2018-04-13T02:04:38.001Z,996.73
2018-04-13T02:05:13.133Z,996.74
2018-04-13T02:05:48.251Z,996.70
2018-04-13T02:06:23.693Z,996.75
2018-04-13T02:06:58.945Z,996.71
2018-04-13T02:07:35.663Z,996.70
2018-04-13T02:08:10.950Z,996.71
2018-04-13T02:08:46.348Z,996.73
2018-04-13T02:09:21.736Z,996.75
2018-04-13T02:09:57.253Z,996.73
2018-04-13T02:10:32.755Z,996.73
2018-04-13T02:11:08.427Z,996.76
2018-04-13T02:11:43.742Z,996.76
2018-04-13T02:12:19.051Z,996.77
2018-04-13T02:12:54.366Z,996.75
2018-04-13T02:13:29.655Z,996.76
2018-04-13T02:14:04.895Z,996.76
2018-04-13T02:14:40.321Z,996.80
2018-04-13T02:15:15.664Z,996.81
2018-04-13T02:15:51.072Z,996.78
2018-04-13T02:16:26.558Z,996.78
2018-04-13T02:17:01.936Z,996.80
2018-04-13T02:17:37.381Z,996.82
2018-04-13T02:18:13.167Z,996.82
2018-04-13T02:18:48.487Z,996.84
2018-04-13T02:19:23.757Z,996.87
2018-04-13T02:19:59.287Z,996.80
2018-04-13T02:20:34.834Z,996.85
2018-04-13T02:21:10.346Z,996.85
2018-04-13T02:21:45.473Z,996.81
2018-04-13T02:22:20.801Z,996.83
2018-04-13T02:22:55.920Z,996.83
2018-04-13T02:23:31.124Z,996.82
2018-04-13T02:24:06.358Z,996.86
2018-04-13T02:24:41.983Z,996.87
2018-04-13T02:25:17.179Z,996.86
2018-04-13T02:25:52.932Z,996.86
2018-04-13T02:26:28.326Z,996.88
2018-04-13T02:27:03.769Z,996.86
2018-04-13T02:27:39.107Z,996.86
2018-04-13T02:28:14.289Z,996.87
2018-04-13T02:28:49.531Z,996.86
2018-04-13T02:29:24.839Z,996.89
2018-04-13T02:30:00.093Z,996.93
2018-04-13T02:30:35.527Z,996.92
2018-04-13T02:31:10.635Z,996.92
2018-04-13T02:31:46.168Z,996.91
2018-04-13T02:32:21.884Z,996.90
2018-04-13T02:32:57.132Z,996.90
2018-04-13T02:33:32.533Z,996.91
2018-04-13T02:34:07.972Z,996.91
2018-04-13T02:34:43.466Z,996.88
2018-04-13T02:35:18.797Z,996.88
2018-04-13T02:35:54.244Z,996.87
2018-04-13T02:36:29.533Z,996.90
2018-04-13T02:37:04.799Z,996.89
2018-04-13T02:37:40.527Z,996.88
2018-04-13T02:38:15.833Z,996.91
2018-04-13T02:38:51.334Z,996.87
2018-04-13T02:39:26.953Z,996.88
2018-04-13T02:40:02.917Z,996.89
2018-04-13T02:40:39.049Z,996.90
2018-04-13T02:41:14.259Z,996.90
2018-04-13T02:41:49.670Z,996.89
2018-04-13T02:42:25.126Z,996.90
2018-04-13T02:43:00.450Z,996.91
2018-04-13T02:43:35.652Z,996.91
2018-04-13T02:44:11.192Z,996.91
2018-04-13T02:44:46.533Z,996.88
2018-04-13T02:45:21.831Z,996.85
2018-04-13T02:45:57.136Z,996.89
2018-04-13T02:46:32.533Z,996.91
2018-04-13T02:47:08.080Z,996.89
2018-04-13T02:47:43.368Z,996.91
2018-04-13T02:48:18.675Z,996.92
2018-04-13T02:48:54.027Z,996.91
2018-04-13T02:49:29.317Z,996.92
2018-04-13T02:50:04.847Z,996.93
2018-04-13T02:50:42.741Z,996.93
2018-04-13T02:51:18.263Z,996.93
2018-04-13T02:51:53.894Z,996.95
2018-04-13T02:52:29.184Z,996.95
2018-04-13T02:53:04.649Z,996.98
2018-04-13T02:53:40.203Z,996.94
2018-04-13T02:54:15.321Z,996.99
2018-04-13T02:54:50.647Z,996.98
2018-04-13T02:55:25.919Z,996.97
2018-04-13T02:56:01.256Z,997.03
2018-04-13T02:56:36.545Z,997.02
2018-04-13T02:57:11.822Z,997.02
2018-04-13T02:57:47.068Z,997.07
2018-04-13T02:58:22.584Z,997.07
2018-04-13T02:58:57.790Z,997.08
2018-04-13T02:59:33.100Z,997.06
2018-04-13T03:00:08.531Z,997.10
2018-04-13T03:00:47.763Z,997.08
2018-04-13T03:01:23.036Z,997.09
2018-04-13T03:01:58.879Z,997.13
2018-04-13T03:02:34.176Z,997.14
2018-04-13T03:03:09.914Z,997.17
2018-04-13T03:03:45.415Z,997.13
2018-04-13T03:04:20.628Z,997.13
2018-04-13T03:04:56.270Z,997.16
2018-04-13T03:05:31.459Z,997.17
2018-04-13T03:06:06.685Z,997.22
2018-04-13T03:06:41.792Z,997.20
2018-04-13T03:07:17.261Z,997.21
2018-04-13T03:07:53.089Z,997.21
2018-04-13T03:08:28.485Z,997.22
2018-04-13T03:09:03.813Z,997.22
2018-04-13T03:09:39.227Z,997.23
2018-04-13T03:10:14.460Z,997.22
2018-04-13T03:10:49.993Z,997.23
2018-04-13T03:11:25.485Z,997.22
2018-04-13T03:12:01.164Z,997.21
2018-04-13T03:12:37.259Z,997.23
2018-04-13T03:13:12.453Z,997.27
2018-04-13T03:13:47.826Z,997.25
2018-04-13T03:14:23.356Z,997.27
2018-04-13T03:14:58.670Z,997.22
2018-04-13T03:15:34.509Z,997.27
2018-04-13T03:16:09.715Z,997.27
2018-04-13T03:16:44.926Z,997.31
2018-04-13T03:17:20.521Z,997.26
2018-04-13T03:17:55.645Z,997.25
2018-04-13T03:18:31.023Z,997.30
2018-04-13T03:19:06.584Z,997.30
2018-04-13T03:19:41.911Z,997.26
2018-04-13T03:20:17.035Z,997.26
2018-04-13T03:20:52.455Z,997.28
2018-04-13T03:21:27.864Z,997.32
2018-04-13T03:22:03.734Z,997.32
2018-04-13T03:22:39.016Z,997.34
2018-04-13T03:23:14.457Z,997.31
2018-04-13T03:23:49.667Z,997.30
2018-04-13T03:24:25.182Z,997.33
2018-04-13T03:25:00.712Z,997.33
2018-04-13T03:25:35.904Z,997.33
2018-04-13T03:26:11.534Z,997.31
2018-04-13T03:26:47.165Z,997.30
2018-04-13T03:27:22.988Z,997.34
2018-04-13T03:27:58.609Z,997.37
2018-04-13T03:28:34.109Z,997.34
2018-04-13T03:29:09.412Z,997.40
2018-04-13T03:29:44.527Z,997.37
2018-04-13T03:30:20.127Z,997.41
2018-04-13T03:30:55.550Z,997.42
2018-04-13T03:31:31.056Z,997.43
2018-04-13T03:32:06.821Z,997.45
2018-04-13T03:32:42.107Z,997.46
2018-04-13T03:33:17.446Z,997.49
2018-04-13T03:33:52.808Z,997.48
2018-04-13T03:34:28.380Z,997.49
2018-04-13T03:35:03.475Z,997.45
2018-04-13T03:35:38.701Z,997.51
2018-04-13T03:36:14.160Z,997.47
2018-04-13T03:36:49.477Z,997.51
2018-04-13T03:37:24.830Z,997.46
2018-04-13T03:38:00.462Z,997.47
2018-04-13T03:38:35.758Z,997.47
2018-04-13T03:39:11.378Z,997.48
2018-04-13T03:39:46.518Z,997.47
2018-04-13T03:40:21.957Z,997.47
2018-04-13T03:40:57.278Z,997.48
2018-04-13T03:41:32.580Z,997.48
2018-04-13T03:42:08.024Z,997.46
2018-04-13T03:42:43.515Z,997.46
2018-04-13T03:43:18.625Z,997.45
2018-04-13T03:43:54.253Z,997.46
2018-04-13T03:44:29.787Z,997.46
2018-04-13T03:45:05.538Z,997.43
2018-04-13T03:45:40.814Z,997.44
2018-04-13T03:46:15.855Z,997.43
2018-04-13T03:46:51.246Z,997.44
2018-04-13T03:47:26.513Z,997.47
2018-04-13T03:48:01.782Z,997.45
2018-04-13T03:48:37.994Z,997.44
2018-04-13T03:49:13.519Z,997.43
2018-04-13T03:49:48.920Z,997.47
2018-04-13T03:50:24.376Z,997.44
2018-04-13T03:50:59.592Z,997.45
2018-04-13T03:51:34.766Z,997.46
2018-04-13T03:52:10.367Z,997.46
2018-04-13T03:52:45.559Z,997.43
2018-04-13T03:53:21.292Z,997.46
2018-04-13T03:53:56.961Z,997.43
2018-04-13T03:54:32.172Z,997.45
2018-04-13T03:55:07.572Z,997.48
2018-04-13T03:55:43.058Z,997.50
2018-04-13T03:56:18.375Z,997.52
2018-04-13T03:56:53.607Z,997.54
2018-04-13T03:57:29.055Z,997.54
2018-04-13T03:58:04.397Z,997.55
2018-04-13T03:58:40.086Z,997.56
2018-04-13T03:59:15.497Z,997.56
2018-04-13T03:59:50.673Z,997.56
2018-04-13T04:00:26.123Z,997.58
2018-04-13T04:01:02.260Z,997.57
2018-04-13T04:01:37.852Z,997.59
2018-04-13T04:02:13.446Z,997.58
2018-04-13T04:02:48.648Z,997.59
2018-04-13T04:03:24.262Z,997.59
2018-04-13T04:03:59.683Z,997.58
2018-04-13T04:04:35.061Z,997.59
2018-04-13T04:05:10.599Z,997.60
2018-04-13T04:05:45.725Z,997.62
2018-04-13T04:06:21.570Z,997.61
2018-04-13T04:06:57.204Z,997.63
2018-04-13T04:07:32.535Z,997.65
2018-04-13T04:08:08.290Z,997.63
2018-04-13T04:08:43.692Z,997.65
2018-04-13T04:09:19.046Z,997.63
2018-04-13T04:09:55.766Z,997.64
2018-04-13T04:10:31.068Z,997.68
2018-04-13T04:11:06.283Z,997.68
2018-04-13T04:11:41.598Z,997.69
2018-04-13T04:12:16.942Z,997.71
2018-04-13T04:12:52.238Z,997.68
2018-04-13T04:13:27.559Z,997.70
2018-04-13T04:14:03.178Z,997.73
2018-04-13T04:14:39.143Z,997.73
2018-04-13T04:15:14.664Z,997.74
2018-04-13T04:15:49.882Z,997.74
2018-04-13T04:16:25.637Z,997.75
2018-04-13T04:17:01.403Z,997.77
2018-04-13T04:17:36.924Z,997.79
2018-04-13T04:18:12.138Z,997.78
2018-04-13T04:18:47.569Z,997.78
2018-04-13T04:19:22.876Z,997.76
2018-04-13T04:19:57.877Z,997.74
2018-04-13T04:20:33.615Z,997.79
2018-04-13T04:21:08.921Z,997.75
2018-04-13T04:21:44.324Z,997.75
2018-04-13T04:22:19.622Z,997.74
2018-04-13T04:22:55.021Z,997.79
2018-04-13T04:23:30.363Z,997.79
2018-04-13T04:24:05.928Z,997.78
2018-04-13T04:24:41.698Z,997.75
2018-04-13T04:25:16.849Z,997.78
2018-04-13T04:25:52.457Z,997.79
2018-04-13T04:26:27.814Z,997.78
2018-04-13T04:27:03.529Z,997.79
2018-04-13T04:27:39.041Z,997.80
2018-04-13T04:28:14.662Z,997.74
2018-04-13T04:28:49.779Z,997.75
2018-04-13T04:29:25.127Z,997.76
2018-04-13T04:30:00.503Z,997.76
2018-04-13T04:30:35.933Z,997.75
2018-04-13T04:31:10.905Z,997.74
2018-04-13T04:31:46.213Z,997.76
2018-04-13T04:32:21.575Z,997.75
2018-04-13T04:32:57.188Z,997.74
2018-04-13T04:33:32.702Z,997.77
2018-04-13T04:34:07.929Z,997.76
2018-04-13T04:34:43.613Z,997.78
2018-04-13T04:35:18.990Z,997.76
2018-04-13T04:35:54.226Z,997.76
2018-04-13T04:36:29.942Z,997.72
2018-04-13T04:37:05.375Z,997.75
2018-04-13T04:37:41.004Z,997.70
2018-04-13T04:38:16.447Z,997.67
2018-04-13T04:38:51.910Z,997.66
2018-04-13T04:39:27.853Z,997.65
2018-04-13T04:40:03.523Z,997.64
2018-04-13T04:40:39.550Z,997.60
2018-04-13T04:41:14.754Z,997.60
2018-04-13T04:41:49.856Z,997.63
2018-04-13T04:42:25.229Z,997.64
2018-04-13T04:43:00.539Z,997.64
2018-04-13T04:43:35.875Z,997.64
2018-04-13T04:44:11.484Z,997.66
2018-04-13T04:44:46.812Z,997.68
2018-04-13T04:45:21.930Z,997.71
2018-04-13T04:45:57.574Z,997.67
2018-04-13T04:46:32.860Z,997.73
2018-04-13T04:47:07.899Z,997.75
2018-04-13T04:47:43.369Z,997.71
2018-04-13T04:48:18.588Z,997.73
2018-04-13T04:48:54.106Z,997.74
2018-04-13T04:49:29.449Z,997.75
2018-04-13T04:50:05.200Z,997.77
2018-04-13T04:50:40.615Z,997.78
2018-04-13T04:51:16.052Z,997.78
2018-04-13T04:51:51.605Z,997.79
2018-04-13T04:52:26.952Z,997.76
2018-04-13T04:53:02.084Z,997.77
2018-04-13T04:53:37.694Z,997.74
2018-04-13T04:54:12.795Z,997.79
2018-04-13T04:54:48.529Z,997.79
2018-04-13T04:55:23.754Z,997.77
2018-04-13T04:55:59.159Z,997.80
2018-04-13T04:56:34.982Z,997.80
2018-04-13T04:57:10.423Z,997.81
2018-04-13T04:57:46.286Z,997.81
2018-04-13T04:58:21.704Z,997.81
2018-04-13T04:58:57.211Z,997.84
2018-04-13T04:59:32.651Z,997.83
2018-04-13T05:00:07.832Z,997.86
2018-04-13T05:00:43.779Z,997.84
2018-04-13T05:01:19.201Z,997.89
2018-04-13T05:01:54.736Z,997.86
2018-04-13T05:02:29.992Z,997.83
2018-04-13T05:03:05.505Z,997.82
2018-04-13T05:03:40.753Z,997.85
2018-04-13T05:04:16.396Z,997.85
2018-04-13T05:04:51.965Z,997.85
2018-04-13T05:05:27.396Z,997.88
2018-04-13T05:06:02.991Z,997.89
2018-04-13T05:06:38.631Z,997.91
2018-04-13T05:07:14.500Z,997.93
2018-04-13T05:07:49.924Z,997.99
2018-04-13T05:08:25.255Z,998.00
2018-04-13T05:09:00.570Z,997.97
2018-04-13T05:09:36.038Z,997.95
2018-04-13T05:10:11.202Z,997.97
2018-04-13T05:10:46.734Z,997.96
2018-04-13T05:11:22.122Z,997.99
2018-04-13T05:11:57.445Z,998.00
2018-04-13T05:12:32.793Z,997.96
2018-04-13T05:13:08.221Z,998.00
2018-04-13T05:13:43.328Z,997.98
2018-04-13T05:14:18.999Z,997.99
2018-04-13T05:14:54.489Z,998.03
2018-04-13T05:15:30.119Z,998.04
2018-04-13T05:16:05.915Z,998.04
2018-04-13T05:16:41.445Z,998.07
2018-04-13T05:17:16.876Z,998.06
2018-04-13T05:17:52.475Z,998.09
2018-04-13T05:18:27.621Z,998.09
2018-04-13T05:19:02.931Z,998.14
2018-04-13T05:19:38.406Z,998.14
2018-04-13T05:20:13.828Z,998.13
2018-04-13T05:20:51.953Z,998.18
2018-04-13T05:21:27.220Z,998.17
2018-04-13T05:22:02.589Z,998.15
2018-04-13T05:22:37.809Z,998.21
2018-04-13T05:23:13.079Z,998.20
2018-04-13T05:23:48.445Z,998.18
2018-04-13T05:24:23.981Z,998.18
2018-04-13T05:24:59.323Z,998.18
2018-04-13T05:25:35.104Z,998.21
2018-04-13T05:26:10.664Z,998.20
2018-04-13T05:26:46.512Z,998.18
2018-04-13T05:27:21.814Z,998.19
2018-04-13T05:27:57.313Z,998.15
2018-04-13T05:28:32.627Z,998.17
2018-04-13T05:29:08.123Z,998.21
2018-04-13T05:29:43.459Z,998.17
2018-04-13T05:30:19.205Z,998.16
2018-04-13T05:30:55.638Z,998.16
2018-04-13T05:31:31.478Z,998.14
2018-04-13T05:32:06.773Z,998.16
2018-04-13T05:32:42.542Z,998.15
2018-04-13T05:33:17.937Z,998.13
2018-04-13T05:33:53.051Z,998.14
2018-04-13T05:34:28.807Z,998.16
2018-04-13T05:35:03.789Z,998.14
2018-04-13T05:35:39.521Z,998.16
2018-04-13T05:36:14.869Z,998.17
2018-04-13T05:36:50.259Z,998.14
2018-04-13T05:37:25.702Z,998.16
2018-04-13T05:38:00.881Z,998.18
2018-04-13T05:38:36.342Z,998.18
2018-04-13T05:39:11.662Z,998.21
2018-04-13T05:39:46.888Z,998.22
2018-04-13T05:40:22.426Z,998.25
2018-04-13T05:40:57.831Z,998.27
2018-04-13T05:41:33.258Z,998.25
2018-04-13T05:42:09.086Z,998.28
2018-04-13T05:42:44.735Z,998.27
2018-04-13T05:43:19.949Z,998.29
2018-04-13T05:43:55.475Z,998.29
2018-04-13T05:44:30.921Z,998.32
2018-04-13T05:45:06.125Z,998.32
2018-04-13T05:45:42.186Z,998.35
2018-04-13T05:46:17.988Z,998.34
2018-04-13T05:46:53.393Z,998.38
2018-04-13T05:47:28.774Z,998.41
2018-04-13T05:48:03.886Z,998.39
2018-04-13T05:48:39.351Z,998.41
2018-04-13T05:49:14.815Z,998.44
2018-04-13T05:49:50.124Z,998.46
2018-04-13T05:50:25.169Z,998.49
2018-04-13T05:51:00.758Z,998.47
2018-04-13T05:51:38.130Z,998.48
2018-04-13T05:52:13.456Z,998.49
2018-04-13T05:52:48.771Z,998.44
2018-04-13T05:53:24.198Z,998.49
2018-04-13T05:53:59.707Z,998.46
2018-04-13T05:54:35.160Z,998.45
2018-04-13T05:55:10.544Z,998.41
2018-04-13T05:55:45.781Z,998.40
2018-04-13T05:56:21.228Z,998.39
2018-04-13T05:56:56.643Z,998.38
2018-04-13T05:57:31.960Z,998.34
2018-04-13T05:58:07.184Z,998.37
2018-04-13T05:58:42.696Z,998.34
2018-04-13T05:59:18.064Z,998.31
2018-04-13T05:59:53.493Z,998.32
2018-04-13T06:00:28.723Z,998.31
2018-04-13T06:01:04.540Z,998.28
2018-04-13T06:01:39.762Z,998.30
2018-04-13T06:02:15.232Z,998.27
2018-04-13T06:02:50.897Z,998.25
2018-04-13T06:03:26.241Z,998.27
2018-04-13T06:04:01.488Z,998.27
2018-04-13T06:04:37.119Z,998.26
2018-04-13T06:07:13.467Z,998.28
2018-04-13T06:07:51.664Z,998.25
2018-04-13T06:08:26.977Z,998.24
2018-04-13T06:09:02.247Z,998.24
2018-04-13T06:09:38.195Z,998.23
2018-04-13T06:10:13.723Z,998.27
2018-04-13T06:10:51.252Z,998.28
2018-04-13T06:11:26.769Z,998.24
2018-04-13T06:12:01.969Z,998.25
2018-04-13T06:12:37.489Z,998.27
2018-04-13T06:13:12.666Z,998.25
2018-04-13T06:13:47.978Z,998.27
2018-04-13T06:14:23.556Z,998.26
2018-04-13T06:14:58.951Z,998.26
2018-04-13T06:15:34.301Z,998.27
2018-04-13T06:16:09.685Z,998.26
2018-04-13T06:16:45.040Z,998.24
2018-04-13T06:17:20.335Z,998.27
2018-04-13T06:17:56.183Z,998.29
2018-04-13T06:18:31.580Z,998.25
2018-04-13T06:19:06.960Z,998.27
2018-04-13T06:19:42.460Z,998.25
2018-04-13T06:20:18.040Z,998.30
2018-04-13T06:20:53.525Z,998.29
2018-04-13T06:21:29.029Z,998.28
2018-04-13T06:22:04.578Z,998.33
2018-04-13T06:22:41.724Z,998.29
2018-04-13T06:23:17.048Z,998.36
2018-04-13T06:23:52.605Z,998.39
2018-04-13T06:24:27.966Z,998.38
2018-04-13T06:25:03.229Z,998.42
2018-04-13T06:25:42.190Z,998.46
2018-04-13T06:26:19.612Z,998.47
2018-04-13T06:26:55.099Z,998.47
2018-04-13T06:27:30.446Z,998.54
2018-04-13T06:28:05.757Z,998.57
2018-04-13T06:28:41.277Z,998.59
2018-04-13T06:29:16.573Z,998.60
2018-04-13T06:29:51.894Z,998.62
2018-04-13T06:30:27.035Z,998.66
2018-04-13T06:31:02.288Z,998.67
2018-04-13T06:31:38.103Z,998.65
2018-04-13T06:32:13.522Z,998.68
2018-04-13T06:32:48.858Z,998.67
2018-04-13T06:33:24.187Z,998.67
2018-04-13T06:33:59.485Z,998.69
2018-04-13T06:34:37.838Z,998.75
2018-04-13T06:35:13.265Z,998.72
2018-04-13T06:35:48.896Z,998.75
2018-04-13T06:36:24.439Z,998.77
2018-04-13T06:36:59.869Z,998.82
2018-04-13T06:37:35.811Z,998.80
2018-04-13T06:38:11.278Z,998.86
2018-04-13T06:38:46.608Z,998.88
2018-04-13T06:39:22.161Z,998.95
2018-04-13T06:39:57.527Z,999.04
2018-04-13T06:40:33.491Z,999.12
2018-04-13T06:41:08.710Z,999.14
2018-04-13T06:41:43.965Z,999.19
2018-04-13T06:42:19.181Z,999.26
2018-04-13T06:42:55.513Z,999.31
2018-04-13T06:43:31.017Z,999.36
2018-04-13T06:44:06.511Z,999.35
2018-04-13T06:44:41.847Z,999.31
2018-04-13T06:45:18.538Z,999.30
2018-04-13T06:45:53.986Z,999.23
2018-04-13T06:46:29.427Z,999.22
2018-04-13T06:47:05.113Z,999.11
2018-04-13T06:47:40.570Z,999.08
2018-04-13T06:48:15.939Z,999.00
2018-04-13T06:48:51.573Z,998.96
2018-04-13T06:49:26.857Z,998.91
2018-04-13T06:50:02.359Z,998.86
2018-04-13T06:50:39.380Z,998.86
2018-04-13T06:51:14.598Z,998.81
2018-04-13T06:51:50.031Z,998.81
2018-04-13T06:52:25.722Z,998.74
2018-04-13T06:53:01.106Z,998.82
2018-04-13T06:53:36.430Z,998.78
2018-04-13T06:54:11.828Z,998.78
2018-04-13T06:54:47.388Z,998.76
2018-04-13T06:55:22.907Z,998.74
2018-04-13T06:55:59.543Z,998.71
2018-04-13T06:56:35.770Z,998.72
2018-04-13T06:57:11.606Z,998.68
2018-04-13T06:57:46.832Z,998.67
2018-04-13T06:58:22.130Z,998.66
2018-04-13T06:58:59.457Z,998.65
2018-04-13T06:59:35.088Z,998.66
2018-04-13T07:00:10.896Z,998.65
2018-04-13T07:00:47.432Z,998.65
2018-04-13T07:01:22.971Z,998.67
2018-04-13T07:01:58.489Z,998.66
2018-04-13T07:02:34.172Z,998.65
2018-04-13T07:03:09.571Z,998.64
2018-04-13T07:03:45.216Z,998.64
2018-04-13T07:04:20.760Z,998.63
2018-04-13T07:04:56.103Z,998.62
2018-04-13T07:05:31.330Z,998.70
2018-04-13T07:06:06.751Z,998.65
2018-04-13T07:06:45.772Z,998.65
2018-04-13T07:07:21.349Z,998.67
2018-04-13T07:07:56.756Z,998.71
2018-04-13T07:08:32.285Z,998.74
2018-04-13T07:09:07.570Z,998.72
2018-04-13T07:09:42.943Z,998.73
2018-04-13T07:10:18.456Z,998.80
2018-04-13T07:10:56.305Z,998.79
2018-04-13T07:11:31.878Z,998.83
2018-04-13T07:12:07.413Z,998.82
2018-04-13T07:12:42.847Z,998.83
2018-04-13T07:13:18.172Z,998.83
2018-04-13T07:13:53.585Z,998.88
2018-04-13T07:14:28.898Z,998.86
2018-04-13T07:15:04.533Z,998.89
2018-04-13T07:15:40.905Z,998.89
2018-04-13T07:16:16.094Z,998.93
2018-04-13T07:16:51.322Z,998.92
2018-04-13T07:17:28.890Z,998.88
2018-04-13T07:18:04.616Z,998.89
2018-04-13T07:18:40.147Z,998.91
2018-04-13T07:19:15.672Z,998.92
2018-04-13T07:19:51.205Z,998.95
2018-04-13T07:20:26.615Z,998.97
2018-04-13T07:21:02.237Z,998.95
2018-04-13T07:21:37.786Z,998.93
2018-04-13T07:22:12.914Z,998.94
2018-04-13T07:22:48.160Z,998.98
2018-04-13T07:23:23.435Z,998.93
2018-04-13T07:23:58.847Z,998.93
2018-04-13T07:24:34.389Z,998.91
2018-04-13T07:25:10.585Z,998.94